createdAt,value
2022-09-28T00:01:40.473Z,87.04
2022-09-28T00:04:11.213Z,86.72
2022-09-28T00:06:42.326Z,86.62
2022-09-28T00:09:12.705Z,86.87
2022-09-28T00:11:47.475Z,86.73
2022-09-28T01:06:06.558Z,86.92
2022-09-28T01:08:37.728Z,86.57
2022-09-28T01:11:08.224Z,86.47
2022-09-28T01:13:39.775Z,86.58
2022-09-28T01:16:20.511Z,86.60
2022-09-28T01:19:02.368Z,86.53
2022-09-28T01:21:44.427Z,86.74
2022-09-28T01:24:37.610Z,86.86
2022-09-28T01:27:14.846Z,86.77
2022-09-28T01:29:56.529Z,87.12
2022-09-28T01:32:37.480Z,87.04
2022-09-28T01:35:11.965Z,86.95
2022-09-28T01:37:52.427Z,86.89
2022-09-28T01:40:26.077Z,86.97
2022-09-28T01:43:00.931Z,86.93
2022-09-28T01:45:36.775Z,86.78
2022-09-28T01:48:09.601Z,86.85
2022-09-28T01:50:43.392Z,86.75
2022-09-28T01:53:19.621Z,86.65
2022-09-28T01:55:52.881Z,86.85
2022-09-28T01:58:29.992Z,86.77
2022-09-28T02:01:01.281Z,86.51
2022-09-28T02:03:37.831Z,86.46
2022-09-28T02:06:16.502Z,86.46
2022-09-28T02:08:53.967Z,86.29
2022-09-28T02:11:25.109Z,86.14
2022-09-28T02:14:00.130Z,86.19
2022-09-28T02:16:35.999Z,86.36
2022-09-28T02:19:07.856Z,86.44
2022-09-28T02:21:45.322Z,86.50
2022-09-28T02:24:21.643Z,86.55
2022-09-28T02:26:54.662Z,86.54
2022-09-28T02:29:26.030Z,86.74
2022-09-28T02:31:56.368Z,86.84
2022-09-28T02:34:26.973Z,86.83
2022-09-28T02:36:57.355Z,86.99
2022-09-28T02:39:28.043Z,86.94
2022-09-28T02:42:09.070Z,86.95
2022-09-28T02:44:57.698Z,87.06
2022-09-28T02:47:39.408Z,87.20
2022-09-28T02:50:22.290Z,87.09
2022-09-28T02:53:31.539Z,87.09
2022-09-28T02:56:19.683Z,87.26
2022-09-28T02:59:03.818Z,87.19
2022-09-28T03:01:42.542Z,87.30
2022-09-28T03:04:22.706Z,87.37
2022-09-28T03:06:59.727Z,87.38
2022-09-28T03:09:31.325Z,87.44
2022-09-28T03:12:06.067Z,87.65
2022-09-28T03:14:36.539Z,87.67
2022-09-28T03:17:07.199Z,88.06
2022-09-28T03:19:37.834Z,87.93
2022-09-28T03:22:08.134Z,88.05
2022-09-28T03:24:38.399Z,87.89
2022-09-28T03:27:09.344Z,88.10
2022-09-28T03:29:40.780Z,88.05
2022-09-28T03:32:11.075Z,88.31
2022-09-28T03:34:41.324Z,88.18
2022-09-28T03:37:11.605Z,88.25
2022-09-28T03:39:41.858Z,88.41
2022-09-28T03:42:12.182Z,88.45
2022-09-28T03:44:42.445Z,88.45
2022-09-28T03:47:14.010Z,88.66
2022-09-28T03:49:45.640Z,88.61
2022-09-28T03:52:16.756Z,88.51
2022-09-28T03:54:49.226Z,88.62
2022-09-28T03:57:19.818Z,88.69
2022-09-28T03:59:50.083Z,88.57
2022-09-28T04:02:20.405Z,88.71
2022-09-28T04:04:50.797Z,88.69
2022-09-28T04:07:21.033Z,88.65
2022-09-28T04:09:51.309Z,88.76
2022-09-28T04:12:21.614Z,88.78
2022-09-28T04:14:51.894Z,88.87
2022-09-28T04:17:22.257Z,88.92
2022-09-28T04:19:52.529Z,88.88
2022-09-28T04:22:23.408Z,88.95
2022-09-28T04:24:53.644Z,88.96
2022-09-28T04:27:49.604Z,88.83
2022-09-28T04:30:19.915Z,88.83
2022-09-28T04:32:50.339Z,88.91
2022-09-28T04:35:20.924Z,88.89
2022-09-28T04:37:51.366Z,88.93
2022-09-28T04:40:21.710Z,89.14
2022-09-28T04:42:57.366Z,88.88
2022-09-28T04:45:28.637Z,88.65
2022-09-28T04:47:58.981Z,88.89
2022-09-28T04:50:29.690Z,89.04
2022-09-28T04:53:01.176Z,89.22
2022-09-28T04:55:32.620Z,88.98
2022-09-28T04:58:04.678Z,88.94
2022-09-28T05:00:35.153Z,89.18
2022-09-28T05:03:05.948Z,89.14
2022-09-28T05:05:36.249Z,89.15
2022-09-28T05:08:06.535Z,89.26
2022-09-28T05:10:37.080Z,89.36
2022-09-28T05:13:07.347Z,89.41
2022-09-28T05:15:38.305Z,89.13
2022-09-28T05:18:09.716Z,89.27
2022-09-28T05:20:43.673Z,89.36
2022-09-28T05:23:15.532Z,89.29
2022-09-28T05:25:46.531Z,89.49
2022-09-28T05:28:21.594Z,89.42
2022-09-28T05:30:52.206Z,89.28
2022-09-28T05:33:22.522Z,89.34
2022-09-28T05:35:55.971Z,89.20
2022-09-28T05:38:28.529Z,89.10
2022-09-28T05:41:01.198Z,89.09
2022-09-28T05:43:36.348Z,89.19
2022-09-28T05:46:06.978Z,88.98
2022-09-28T05:48:37.679Z,89.08
2022-09-28T05:51:10.229Z,89.12
2022-09-28T05:53:40.512Z,88.94
2022-09-28T05:56:10.865Z,88.74
2022-09-28T05:58:41.098Z,88.82
2022-09-28T06:01:11.580Z,88.90
2022-09-28T06:03:41.872Z,88.54
2022-09-28T06:06:12.202Z,88.83
2022-09-28T06:08:43.666Z,88.70
2022-09-28T06:11:14.035Z,88.64
2022-09-28T06:13:44.269Z,88.26
2022-09-28T06:16:18.753Z,88.45
2022-09-28T06:18:49.310Z,88.39
2022-09-28T06:21:19.586Z,88.36
2022-09-28T06:23:49.909Z,88.04
2022-09-28T06:26:20.334Z,87.85
2022-09-28T06:28:50.578Z,87.71
2022-09-28T06:31:23.870Z,87.70
2022-09-28T06:33:54.507Z,87.40
2022-09-28T06:36:24.947Z,87.28
2022-09-28T06:38:55.281Z,86.89
2022-09-28T06:41:25.576Z,86.98
2022-09-28T06:43:56.502Z,86.64
2022-09-28T06:46:27.174Z,86.51
2022-09-28T06:48:59.762Z,86.35
2022-09-28T06:51:30.156Z,85.94
2022-09-28T06:54:00.761Z,85.45
2022-09-28T06:56:33.068Z,85.31
2022-09-28T06:59:03.959Z,84.85
2022-09-28T07:01:34.366Z,84.72
2022-09-28T07:04:04.885Z,84.31
2022-09-28T07:06:38.598Z,84.05
2022-09-28T07:09:30.200Z,83.86
2022-09-28T07:11:59.424Z,83.59
2022-09-28T07:14:46.701Z,83.17
2022-09-28T07:17:18.470Z,83.09
2022-09-28T07:19:52.803Z,83.04
2022-09-28T07:22:37.318Z,82.71
2022-09-28T07:25:11.376Z,82.60
2022-09-28T07:27:41.664Z,82.51
2022-09-28T07:30:13.990Z,82.13
2022-09-28T07:32:46.014Z,81.88
2022-09-28T07:35:16.549Z,81.51
2022-09-28T07:37:46.877Z,81.17
2022-09-28T07:40:34.894Z,80.76
2022-09-28T07:43:08.061Z,80.49
2022-09-28T07:45:38.546Z,80.37
2022-09-28T07:48:08.994Z,79.79
2022-09-28T07:50:39.369Z,79.52
2022-09-28T07:53:09.686Z,79.24
2022-09-28T07:55:39.964Z,78.88
2022-09-28T07:58:10.252Z,78.65
2022-09-28T08:00:40.534Z,78.56
2022-09-28T08:03:10.878Z,78.38
2022-09-28T08:05:42.875Z,78.17
2022-09-28T08:08:13.782Z,77.80
2022-09-28T08:10:47.400Z,77.56
2022-09-28T08:13:18.347Z,77.44
2022-09-28T08:15:51.951Z,77.24
2022-09-28T08:18:23.546Z,77.17
2022-09-28T08:21:13.462Z,77.00
2022-09-28T08:23:44.201Z,76.69
2022-09-28T08:26:15.756Z,76.56
2022-09-28T08:28:47.891Z,76.37
2022-09-28T08:31:18.681Z,76.25
2022-09-28T08:33:53.897Z,76.14
2022-09-28T08:36:24.502Z,75.96
2022-09-28T08:38:55.054Z,75.72
2022-09-28T08:41:35.331Z,75.38
2022-09-28T08:44:16.055Z,75.15
2022-09-28T08:46:50.400Z,74.84
2022-09-28T08:49:28.001Z,74.68
2022-09-28T08:52:02.786Z,74.48
2022-09-28T08:54:46.052Z,74.42
2022-09-28T08:57:20.116Z,74.11
2022-09-28T08:59:53.663Z,73.95
2022-09-28T09:02:28.706Z,73.63
2022-09-28T09:05:00.847Z,73.34
2022-09-28T09:07:47.155Z,73.03
2022-09-28T09:10:38.635Z,72.76
2022-09-28T09:13:31.462Z,72.49
2022-09-28T09:16:13.756Z,72.19
2022-09-28T09:18:49.568Z,72.21
2022-09-28T09:21:39.815Z,72.04
2022-09-28T09:24:24.766Z,71.60
2022-09-28T09:27:05.243Z,71.47
2022-09-28T09:29:47.074Z,71.10
2022-09-28T09:32:31.995Z,70.73
2022-09-28T09:35:33.373Z,70.38
2022-09-28T09:38:17.382Z,70.29
2022-09-28T09:41:00.277Z,69.96
2022-09-28T09:43:58.924Z,69.75
2022-09-28T09:46:39.494Z,69.35
2022-09-28T09:49:17.350Z,69.10
2022-09-28T09:51:54.585Z,68.99
2022-09-28T09:54:28.735Z,68.69
2022-09-28T09:57:04.212Z,68.58
2022-09-28T09:59:38.931Z,68.38
2022-09-28T10:02:24.004Z,68.21
2022-09-28T10:04:59.337Z,67.95
2022-09-28T10:07:42.582Z,67.72
2022-09-28T10:10:21.533Z,67.09
2022-09-28T10:12:54.084Z,66.62
2022-09-28T10:15:27.368Z,66.43
2022-09-28T10:18:02.020Z,66.37
2022-09-28T10:20:35.799Z,65.88
2022-09-28T10:23:14.485Z,65.20
2022-09-28T10:25:48.805Z,64.51
2022-09-28T10:28:26.888Z,64.07
2022-09-28T10:30:58.548Z,63.54
2022-09-28T10:33:33.623Z,63.46
2022-09-28T10:36:08.401Z,63.59
2022-09-28T10:38:38.779Z,63.42
2022-09-28T10:41:16.639Z,63.68
2022-09-28T10:44:06.400Z,63.69
2022-09-28T10:46:39.532Z,63.81
2022-09-28T10:49:17.676Z,64.17
2022-09-28T10:51:50.336Z,64.53
2022-09-28T10:54:22.440Z,64.79
2022-09-28T10:56:54.136Z,65.12
2022-09-28T10:59:40.944Z,65.74
2022-09-28T11:02:26.668Z,66.39
2022-09-28T11:05:00.266Z,67.03
2022-09-28T11:07:33.687Z,67.51
2022-09-28T11:10:12.303Z,67.93
2022-09-28T11:12:47.035Z,68.20
2022-09-28T11:15:21.454Z,68.45
2022-09-28T11:17:51.867Z,68.78
2022-09-28T11:20:36.081Z,69.10
2022-09-28T11:23:22.417Z,69.38
2022-09-28T11:26:06.973Z,69.61
2022-09-28T11:28:41.282Z,70.01
2022-09-28T11:31:12.740Z,70.17
2022-09-28T11:33:49.373Z,70.18
2022-09-28T11:36:32.503Z,70.37
2022-09-28T11:39:12.535Z,70.69
2022-09-28T11:41:55.249Z,70.61
2022-09-28T11:44:37.379Z,70.83
2022-09-28T11:47:19.715Z,71.44
2022-09-28T11:49:56.223Z,71.96
2022-09-28T11:52:30.182Z,72.28
2022-09-28T11:55:06.059Z,72.63
2022-09-28T11:57:39.797Z,72.81
2022-09-28T12:00:17.842Z,73.15
2022-09-28T12:02:53.134Z,73.30
2022-09-28T12:05:27.926Z,73.52
2022-09-28T12:08:01.200Z,73.66
2022-09-28T12:10:45.391Z,73.85
2022-09-28T12:13:22.534Z,74.31
2022-09-28T12:16:20.077Z,74.37
2022-09-28T12:18:51.257Z,74.54
2022-09-28T12:21:47.917Z,74.61
2022-09-28T12:24:22.663Z,74.57
2022-09-28T12:26:58.864Z,74.66
2022-09-28T12:29:34.652Z,74.77
2022-09-28T12:32:12.284Z,74.75
2022-09-28T12:34:44.760Z,74.82
2022-09-28T12:37:43.789Z,74.89
2022-09-28T12:40:44.833Z,74.73
2022-09-28T12:43:31.154Z,74.89
2022-09-28T12:46:18.921Z,74.84
2022-09-28T12:52:03.053Z,75.46
2022-09-28T12:55:03.326Z,75.58
2022-09-28T12:57:49.498Z,75.80
2022-09-28T13:00:23.478Z,75.89
2022-09-28T13:03:27.009Z,76.02
2022-09-28T13:06:24.453Z,76.24
2022-09-28T13:09:13.067Z,76.49
2022-09-28T13:11:54.488Z,76.50
2022-09-28T13:14:51.319Z,76.42
2022-09-28T13:17:34.348Z,76.36
2022-09-28T13:20:18.694Z,76.31
2022-09-28T13:22:56.828Z,76.28
2022-09-28T13:25:29.802Z,76.36
2022-09-28T13:28:03.392Z,76.36
2022-09-28T13:30:36.902Z,76.44
2022-09-28T13:33:09.358Z,76.32
2022-09-28T13:35:44.392Z,76.50
2022-09-28T13:38:44.818Z,76.58
2022-09-28T13:41:19.797Z,76.95
2022-09-28T13:44:12.367Z,77.02
2022-09-28T13:46:50.697Z,77.26
2022-09-28T13:49:27.695Z,77.30
2022-09-28T13:52:03.734Z,77.36
2022-09-28T13:54:51.382Z,77.54
2022-09-28T13:57:30.648Z,77.65
2022-09-28T14:00:08.537Z,77.81
2022-09-28T14:02:49.500Z,77.94
2022-09-28T14:05:48.448Z,77.70
2022-09-28T14:08:45.143Z,77.73
2022-09-28T14:11:44.240Z,77.62
2022-09-28T14:14:45.552Z,77.62
2022-09-28T14:17:50.178Z,77.79
2022-09-28T14:20:24.927Z,77.91
2022-09-28T14:23:36.290Z,78.01
2022-09-28T14:26:39.742Z,78.10
2022-09-28T14:29:28.503Z,78.22
2022-09-28T14:32:00.117Z,78.31
2022-09-28T14:34:42.509Z,78.39
2022-09-28T14:37:44.964Z,78.59
2022-09-28T14:40:43.701Z,78.99
2022-09-28T14:43:35.688Z,78.99
2022-09-28T14:46:31.446Z,79.25
2022-09-28T14:49:04.027Z,79.44
2022-09-28T14:52:08.370Z,79.75
2022-09-28T14:54:49.008Z,79.96
2022-09-28T14:57:22.395Z,80.04
2022-09-28T14:59:53.697Z,80.12
2022-09-28T15:02:27.576Z,80.21
2022-09-28T15:05:03.425Z,80.46
2022-09-28T15:07:47.737Z,80.55
2022-09-28T15:10:34.221Z,80.49
2022-09-28T15:13:08.417Z,80.53
2022-09-28T15:15:42.319Z,80.69
2022-09-28T15:18:28.871Z,80.72
2022-09-28T15:21:00.369Z,80.79
2022-09-28T15:23:38.803Z,80.91
2022-09-28T15:26:22.189Z,80.81
2022-09-28T15:28:52.501Z,80.76
2022-09-28T15:31:26.313Z,80.55
2022-09-28T15:34:14.251Z,80.44
2022-09-28T15:36:47.227Z,80.43
2022-09-28T15:39:24.147Z,80.24
2022-09-28T15:41:54.796Z,80.07
2022-09-28T15:44:32.949Z,79.77
2022-09-28T15:47:15.408Z,79.57
2022-09-28T15:49:57.295Z,79.35
2022-09-28T15:52:35.972Z,79.08
2022-09-28T15:55:19.787Z,78.96
2022-09-28T15:57:50.467Z,78.77
2022-09-28T16:00:29.873Z,78.94
2022-09-28T16:03:22.839Z,78.79
2022-09-28T16:06:06.922Z,78.86
2022-09-28T16:08:45.586Z,78.90
2022-09-28T16:11:24.090Z,79.02
2022-09-28T16:14:06.600Z,79.02
2022-09-28T16:16:46.821Z,79.11
2022-09-28T16:19:24.404Z,79.07
2022-09-28T16:21:57.716Z,79.16
2022-09-28T16:24:32.584Z,79.29
2022-09-28T16:27:05.960Z,79.36
2022-09-28T16:29:40.317Z,79.40
2022-09-28T16:32:41.858Z,79.36
2022-09-28T16:35:21.868Z,79.40
2022-09-28T16:37:59.193Z,79.55
2022-09-28T16:40:32.877Z,79.55
2022-09-28T16:43:06.871Z,79.79
2022-09-28T16:45:38.761Z,79.83
2022-09-28T16:48:10.964Z,79.88
2022-09-28T16:50:41.287Z,79.90
2022-09-28T16:53:33.205Z,80.16
2022-09-28T16:56:05.432Z,80.03
2022-09-28T16:58:39.183Z,80.13
2022-09-28T17:01:12.663Z,80.28
2022-09-28T17:03:47.037Z,80.43
2022-09-28T17:06:18.607Z,80.49
2022-09-28T17:08:49.062Z,80.62
2022-09-28T17:11:24.501Z,80.62
2022-09-28T17:13:59.032Z,80.59
2022-09-28T17:17:02.318Z,80.58
2022-09-28T17:19:27.450Z,80.67
2022-09-28T17:21:57.787Z,80.75
2022-09-28T17:24:28.086Z,80.69
2022-09-28T17:27:00.756Z,80.73
2022-09-28T17:29:32.701Z,80.84
2022-09-28T17:32:05.209Z,80.74
2022-09-28T17:34:35.583Z,80.84
2022-09-28T17:37:05.942Z,80.67
2022-09-28T17:39:36.299Z,80.76
2022-09-28T17:42:06.927Z,80.85
2022-09-28T17:44:37.337Z,80.87
2022-09-28T17:47:08.267Z,80.71
2022-09-28T17:49:38.952Z,80.94
2022-09-28T17:52:09.709Z,80.76
2022-09-28T17:54:40.075Z,80.93
2022-09-28T17:57:11.437Z,80.79
2022-09-28T17:59:41.944Z,80.86
2022-09-28T18:02:13.747Z,80.94
2022-09-28T18:04:52.590Z,80.89
2022-09-28T18:07:23.259Z,81.04
2022-09-28T18:09:56.896Z,80.97
2022-09-28T18:12:27.602Z,81.11
2022-09-28T18:14:57.915Z,81.19
2022-09-28T18:17:28.285Z,81.06
2022-09-28T18:19:58.593Z,81.16
2022-09-28T18:22:28.839Z,81.35
2022-09-28T18:24:59.295Z,81.53
2022-09-28T18:27:30.512Z,81.44
2022-09-28T18:30:00.807Z,81.56
2022-09-28T18:32:31.142Z,81.51
2022-09-28T18:35:01.502Z,81.58
2022-09-28T18:37:31.869Z,81.61
2022-09-28T18:40:02.556Z,81.63
2022-09-28T18:42:35.727Z,81.61
2022-09-28T18:45:08.419Z,81.61
2022-09-28T18:47:39.239Z,81.69
2022-09-28T18:50:13.001Z,81.66
2022-09-28T18:52:44.544Z,81.85
2022-09-28T18:55:15.129Z,81.82
2022-09-28T18:57:46.940Z,81.73
2022-09-28T19:00:19.992Z,81.91
2022-09-28T19:02:50.473Z,81.65
2022-09-28T19:05:21.038Z,81.57
2022-09-28T19:07:51.352Z,81.69
2022-09-28T19:10:21.693Z,81.75
2022-09-28T19:12:52.309Z,81.71
2022-09-28T19:15:22.823Z,81.74
2022-09-28T19:17:53.098Z,81.86
2022-09-28T19:20:23.463Z,82.01
2022-09-28T19:22:58.472Z,82.11
2022-09-28T19:25:29.200Z,81.90
2022-09-28T19:27:59.518Z,82.13
2022-09-28T19:30:29.934Z,82.18
2022-09-28T19:33:02.312Z,82.19
2022-09-28T19:35:32.656Z,81.99
2022-09-28T19:38:02.878Z,82.06
2022-09-28T19:40:33.238Z,82.35
2022-09-28T19:43:04.705Z,82.43
2022-09-28T19:45:37.970Z,82.33
2022-09-28T19:48:08.234Z,82.54
2022-09-28T19:50:39.773Z,82.23
2022-09-28T19:53:10.338Z,82.43
2022-09-28T19:55:40.924Z,82.64
2022-09-28T19:58:11.295Z,82.58
2022-09-28T20:00:41.553Z,82.53
2022-09-28T20:03:11.798Z,82.59
2022-09-28T20:05:43.395Z,82.72
2022-09-28T20:08:14.998Z,82.63
2022-09-28T20:10:53.419Z,82.63
2022-09-28T20:13:24.753Z,82.66
2022-09-28T20:15:56.453Z,82.57
2022-09-28T20:18:27.596Z,82.78
2022-09-28T20:21:05.114Z,82.62
2022-09-28T20:23:36.773Z,82.80
2022-09-28T20:26:09.183Z,82.71
2022-09-28T20:28:40.533Z,82.72
2022-09-28T20:31:13.307Z,82.77
2022-09-28T20:33:44.397Z,82.47
2022-09-28T20:36:17.226Z,82.22
2022-09-28T20:38:50.006Z,82.58
2022-09-28T20:41:22.202Z,82.24
2022-09-28T20:43:56.723Z,82.36
2022-09-28T20:46:28.076Z,82.34
2022-09-28T20:48:59.640Z,82.37
2022-09-28T20:51:30.187Z,82.35
2022-09-28T20:54:01.134Z,82.42
2022-09-28T20:56:37.699Z,82.74
2022-09-28T20:59:11.161Z,82.79
2022-09-28T21:01:41.832Z,82.84
2022-09-28T21:04:13.139Z,82.95
2022-09-28T21:06:46.916Z,82.88
2022-09-28T21:09:17.196Z,82.79
2022-09-28T21:11:48.183Z,82.88
2022-09-28T21:14:18.569Z,82.76
2022-09-28T21:16:49.079Z,82.78
2022-09-28T21:19:20.611Z,82.47
2022-09-28T21:21:50.867Z,82.38
2022-09-28T21:24:21.160Z,82.39
2022-09-28T21:26:51.374Z,82.43
2022-09-28T21:29:21.883Z,82.45
2022-09-28T21:31:52.128Z,82.44
2022-09-28T21:34:22.883Z,82.44
2022-09-28T21:36:53.381Z,82.52
2022-09-28T21:39:23.576Z,82.56
2022-09-28T21:41:53.880Z,82.58
2022-09-28T21:44:24.229Z,82.55
2022-09-28T21:46:54.450Z,82.68
2022-09-28T21:49:24.694Z,82.90
2022-09-28T21:51:54.926Z,82.79
2022-09-28T21:54:25.196Z,82.97
2022-09-28T21:56:55.414Z,82.88
2022-09-28T21:59:26.126Z,82.94
2022-09-28T22:01:56.363Z,83.07
2022-09-28T22:04:26.696Z,83.04
2022-09-28T22:06:56.964Z,83.10
2022-09-28T22:09:27.253Z,83.18
2022-09-28T22:11:57.596Z,83.20
2022-09-28T22:14:28.392Z,82.93
2022-09-28T22:16:58.675Z,82.84
2022-09-28T22:19:28.967Z,82.63
2022-09-28T22:21:59.196Z,82.68
2022-09-28T22:24:29.683Z,82.68
2022-09-28T22:26:59.994Z,82.78
2022-09-28T22:29:30.490Z,82.72
2022-09-28T22:32:02.453Z,82.69
2022-09-28T22:34:33.235Z,82.74
2022-09-28T22:37:04.707Z,82.76
2022-09-28T22:39:37.741Z,83.01
2022-09-28T22:42:09.131Z,83.02
2022-09-28T22:44:40.510Z,83.12
2022-09-28T22:47:10.811Z,83.33
2022-09-28T22:49:41.113Z,83.34
2022-09-28T22:52:11.409Z,83.51
2022-09-28T22:54:41.654Z,83.42
2022-09-28T22:57:12.005Z,83.64
2022-09-28T22:59:42.250Z,83.63
2022-09-28T23:02:12.718Z,83.77
2022-09-28T23:04:42.984Z,83.58
2022-09-28T23:07:13.238Z,83.46
2022-09-28T23:09:43.463Z,83.48
2022-09-28T23:12:13.954Z,83.61
2022-09-28T23:14:44.230Z,83.73
2022-09-28T23:17:14.515Z,83.90
2022-09-28T23:19:45.023Z,83.89
2022-09-28T23:22:16.402Z,83.97
2022-09-28T23:24:46.718Z,83.92
2022-09-28T23:27:17.003Z,84.04
2022-09-28T23:29:48.888Z,84.14
2022-09-28T23:32:19.183Z,83.99
2022-09-28T23:34:49.377Z,84.10
2022-09-28T23:37:19.580Z,84.08
2022-09-28T23:39:50.263Z,84.15
2022-09-28T23:42:20.524Z,84.07
2022-09-28T23:44:50.810Z,83.93
2022-09-28T23:47:21.056Z,83.88
2022-09-28T23:49:51.404Z,83.68
2022-09-28T23:52:21.622Z,83.71
2022-09-28T23:54:51.845Z,83.63
2022-09-28T23:57:22.184Z,83.67
2022-09-28T23:59:52.506Z,83.77
